To NAV CANADA Home Page Login to a new session Search on AWWS site Feedback and Comments Disclaimer Vers la page française équivalente Tips FAQ What's new on the site To the Forecasts and Observations / NOTAM section To "File a Flight Plan" website Publications and other links Update of the User's profile FIC Telephone Numbers My Weather Data Folder Route Weather Data Regional Weather Data Local Weather Data To the Forecasts and Observations / NOTAM section
Request Generated 04/24/2014 at 17:59:53 UTC . Weather information available at that time is displayed.

METAR/TAF

KUUJJUAQ/QC    

SPECI CYVP 241726Z 05012KT 2 1/2SM -SN BR BKN014 BKN030 OVC075
M01/M04 A3019 RMK SF6SC1AS1 SUN DIMLY VISBL SLP226=
METAR CYVP 241700Z 05011KT 8SM -SN BKN015 BKN032 OVC070 M01/M04 A3019
RMK SF5SC2AS1 SLP226=
METAR CYVP 241600Z 07011KT 8SM -SN BKN016 BKN033 OVC070 M01/M04 A3019
RMK SF5SC2AS1 SLP227=
METAR CYVP 241500Z 08011KT 4SM -SN BR BKN015 BKN033 OVC070 M02/M04
A3019 RMK SF5SC2AS1 SLP228=

TAF CYVP 241738Z 2418/2506 05010KT 2SM -SHSN BKN015 OVC080 TEMPO
2418/2420 3SM -SN BKN030 OVC080
FM242000 10010KT 2SM -SN OVC025 TEMPO 2420/2506 1SM -SHSN OVC015
RMK NXT FCST BY 250000Z=
Your time UTC time
Weather data provided by Environment Canada and NAV CANADA